Time,TemperatureF,DewpointF,PressureIn,WindDirection,WindDirectionDegrees,WindSpeedMPH,WindSpeedGustMPH,Humidity,HourlyPrecipIn,Conditions,Clouds,dailyrainin,SoftwareType,DateUTC
2013-03-16 00:00:00,55.7,41.6,29.96,SSW,203,8.0,-999.0,59,0.00,,,0.00,Wunderground v.1.15,2013-03-16 04:00:00,
2013-03-16 12:00:00,72.9,46.5,29.86,West,270,12.0,-999.0,39,0.00,,,0.00,Wunderground v.1.15,2013-03-16 16:00:00,
2013-03-16 12:05:00,73.1,46.0,29.87,West,270,15.0,-999.0,38,0.00,,,0.00,Wunderground v.1.15,2013-03-16 16:05:00,
2013-03-16 12:10:00,73.3,46.2,29.86,West,270,15.0,-999.0,38,0.00,,,0.00,Wunderground v.1.15,2013-03-16 16:10:00,
2013-03-16 12:15:00,73.5,46.3,29.86,West,270,15.0,-999.0,38,0.00,,,0.00,Wunderground v.1.15,2013-03-16 16:15:00,
2013-03-16 12:20:00,74.0,46.1,29.86,West,270,14.0,-999.0,37,0.00,,,0.00,Wunderground v.1.15,2013-03-16 16:20:00,
2013-03-16 12:25:00,74.4,47.1,29.86,West,270,12.0,-999.0,38,0.00,,,0.00,Wunderground v.1.15,2013-03-16 16:25:00,
2013-03-16 12:30:00,74.6,47.3,29.85,West,270,10.0,-999.0,38,0.00,,,0.00,Wunderground v.1.15,2013-03-16 16:30:00,
2013-03-16 12:35:00,74.7,46.7,29.85,WSW,248,12.0,-999.0,37,0.00,,,0.00,Wunderground v.1.15,2013-03-16 16:35:00,
2013-03-16 12:40:00,74.5,46.5,29.85,West,270,14.0,-999.0,37,0.00,,,0.00,Wunderground v.1.15,2013-03-16 16:40:00,
2013-03-16 12:45:00,74.6,45.9,29.86,West,270,16.0,-999.0,36,0.00,,,0.00,Wunderground v.1.15,2013-03-16 16:45:00,
2013-03-16 12:50:00,74.6,46.6,29.85,West,270,12.0,-999.0,37,0.00,,,0.00,Wunderground v.1.15,2013-03-16 16:50:00,
2013-03-16 12:55:00,74.7,46.7,29.85,West,270,14.0,-999.0,37,0.00,,,0.00,Wunderground v.1.15,2013-03-16 16:55:00,
2013-03-16 13:00:00,74.7,46.7,29.85,West,270,13.0,-999.0,37,0.00,,,0.00,Wunderground v.1.15,2013-03-16 17:00:00,
2013-03-16 13:05:00,75.4,48.0,29.84,West,270,11.0,-999.0,38,0.00,,,0.00,Wunderground v.1.15,2013-03-16 17:05:00,
2013-03-16 13:10:00,75.8,46.9,29.84,West,270,13.0,-999.0,36,0.00,,,0.00,Wunderground v.1.15,2013-03-16 17:10:00,
2013-03-16 13:15:00,75.7,47.6,29.84,WSW,248,12.0,-999.0,37,0.00,,,0.00,Wunderground v.1.15,2013-03-16 17:15:00,
2013-03-16 13:20:00,75.5,46.7,29.84,WSW,248,12.0,-999.0,36,0.00,,,0.00,Wunderground v.1.15,2013-03-16 17:20:00,
2013-03-16 13:25:00,75.7,47.6,29.83,WSW,248,12.0,-999.0,37,0.00,,,0.00,Wunderground v.1.15,2013-03-16 17:25:00,
2013-03-16 13:30:00,75.6,46.8,29.83,West,270,14.0,-999.0,36,0.00,,,0.00,Wunderground v.1.15,2013-03-16 17:30:00,
2013-03-16 13:35:00,75.8,46.9,29.83,West,270,12.0,-999.0,36,0.00,,,0.00,Wunderground v.1.15,2013-03-16 17:35:00,
2013-03-16 13:40:00,76.1,47.2,29.82,WSW,248,14.0,-999.0,36,0.00,,,0.00,Wunderground v.1.15,2013-03-16 17:40:00,
2013-03-16 13:45:00,76.3,47.4,29.82,West,270,12.0,-999.0,36,0.00,,,0.00,Wunderground v.1.15,2013-03-16 17:45:00,
2013-03-16 13:50:00,76.4,46.7,29.82,West,270,14.0,-999.0,35,0.00,,,0.00,Wunderground v.1.15,2013-03-16 17:50:00,
2013-03-16 13:55:00,76.5,46.8,29.82,West,270,13.0,-999.0,35,0.00,,,0.00,Wunderground v.1.15,2013-03-16 17:55:00,
2013-03-16 14:00:00,76.7,47.7,29.81,West,270,11.0,-999.0,36,0.00,,,0.00,Wunderground v.1.15,2013-03-16 18:00:00,
2013-03-16 14:05:00,76.8,47.8,29.82,WSW,248,13.0,-999.0,36,0.00,,,0.00,Wunderground v.1.15,2013-03-16 18:05:00,
2013-03-16 14:10:00,76.7,47.7,29.81,WSW,248,12.0,-999.0,36,0.00,,,0.00,Wunderground v.1.15,2013-03-16 18:10:00,
2013-03-16 14:15:00,76.9,47.2,29.81,West,270,11.0,-999.0,35,0.00,,,0.00,Wunderground v.1.15,2013-03-16 18:15:00,
2013-03-16 14:20:00,77.0,48.0,29.81,WSW,248,10.0,-999.0,36,0.00,,,0.00,Wunderground v.1.15,2013-03-16 18:20:00,
2013-03-16 14:25:00,76.5,47.6,29.80,WSW,248,13.0,-999.0,36,0.00,,,0.00,Wunderground v.1.15,2013-03-16 18:25:00,
2013-03-16 14:30:00,76.6,47.6,29.80,WSW,248,12.0,-999.0,36,0.00,,,0.00,Wunderground v.1.15,2013-03-16 18:30:00,
2013-03-16 14:35:00,76.7,47.0,29.80,West,270,10.0,-999.0,35,0.00,,,0.00,Wunderground v.1.15,2013-03-16 18:35:00,
2013-03-16 14:40:00,76.6,46.9,29.79,WSW,248,13.0,-999.0,35,0.00,,,0.00,Wunderground v.1.15,2013-03-16 18:40:00,
2013-03-16 14:45:00,77.1,47.3,29.79,West,270,12.0,-999.0,35,0.00,,,0.00,Wunderground v.1.15,2013-03-16 18:45:00,
2013-03-16 14:50:00,77.7,48.6,29.79,WSW,248,7.0,-999.0,36,0.00,,,0.00,Wunderground v.1.15,2013-03-16 18:50:00,
2013-03-16 14:55:00,78.2,47.5,29.78,West,270,10.0,-999.0,34,0.00,,,0.00,Wunderground v.1.15,2013-03-16 18:55:00,
2013-03-16 15:00:00,78.1,47.4,29.78,West,270,13.0,-999.0,34,0.00,,,0.00,Wunderground v.1.15,2013-03-16 19:00:00,
2013-03-16 15:05:00,78.1,47.4,29.78,WSW,248,10.0,-999.0,34,0.00,,,0.00,Wunderground v.1.15,2013-03-16 19:05:00,
2013-03-16 15:10:00,78.1,46.6,29.78,WSW,248,13.0,-999.0,33,0.00,,,0.00,Wunderground v.1.15,2013-03-16 19:10:00,
2013-03-16 15:15:00,77.7,45.5,29.77,SW,225,17.0,-999.0,32,0.00,,,0.00,Wunderground v.1.15,2013-03-16 19:15:00,
2013-03-16 15:20:00,78.0,45.7,29.77,West,270,12.0,-999.0,32,0.00,,,0.00,Wunderground v.1.15,2013-03-16 19:20:00,
2013-03-16 15:25:00,78.0,46.6,29.78,WSW,248,13.0,-999.0,33,0.00,,,0.00,Wunderground v.1.15,2013-03-16 19:25:00,
2013-03-16 15:30:00,78.0,44.9,29.77,WSW,248,13.0,-999.0,31,0.00,,,0.00,Wunderground v.1.15,2013-03-16 19:30:00,
2013-03-16 15:35:00,78.3,45.2,29.77,WSW,248,12.0,-999.0,31,0.00,,,0.00,Wunderground v.1.15,2013-03-16 19:35:00,
2013-03-16 15:40:00,78.6,46.3,29.77,West,270,9.0,-999.0,32,0.00,,,0.00,Wunderground v.1.15,2013-03-16 19:40:00,
2013-03-16 15:45:00,78.6,43.7,29.77,WSW,248,14.0,-999.0,29,0.00,,,0.00,Wunderground v.1.15,2013-03-16 19:45:00,
2013-03-16 15:50:00,78.4,44.4,29.77,West,270,13.0,-999.0,30,0.00,,,0.00,Wunderground v.1.15,2013-03-16 19:50:00,
2013-03-16 15:55:00,78.7,44.7,29.77,West,270,10.0,-999.0,30,0.00,,,0.00,Wunderground v.1.15,2013-03-16 19:55:00,
2013-03-16 16:00:00,78.7,44.7,29.77,WSW,248,15.0,-999.0,30,0.00,,,0.00,Wunderground v.1.15,2013-03-16 20:00:00,
2013-03-16 16:05:00,78.8,44.7,29.76,West,270,11.0,-999.0,30,0.00,,,0.00,Wunderground v.1.15,2013-03-16 20:05:00,
2013-03-16 16:10:00,78.8,44.7,29.76,WSW,248,13.0,-999.0,30,0.00,,,0.00,Wunderground v.1.15,2013-03-16 20:10:00,
2013-03-16 16:15:00,79.0,44.0,29.76,WSW,248,14.0,-999.0,29,0.00,,,0.00,Wunderground v.1.15,2013-03-16 20:15:00,
2013-03-16 16:20:00,79.1,44.1,29.76,WSW,248,12.0,-999.0,29,0.00,,,0.00,Wunderground v.1.15,2013-03-16 20:20:00,
2013-03-16 16:25:00,79.3,44.3,29.76,WSW,248,11.0,-999.0,29,0.00,,,0.00,Wunderground v.1.15,2013-03-16 20:25:00,
2013-03-16 16:30:00,79.1,44.1,29.76,WSW,248,13.0,-999.0,29,0.00,,,0.00,Wunderground v.1.15,2013-03-16 20:30:00,
2013-03-16 16:35:00,79.3,45.2,29.76,WSW,248,10.0,-999.0,30,0.00,,,0.00,Wunderground v.1.15,2013-03-16 20:35:00,
2013-03-16 16:40:00,79.3,45.2,29.76,SW,225,11.0,-999.0,30,0.00,,,0.00,Wunderground v.1.15,2013-03-16 20:40:00,
2013-03-16 16:45:00,79.4,45.3,29.75,WSW,248,12.0,-999.0,30,0.00,,,0.00,Wunderground v.1.15,2013-03-16 20:45:00,
2013-03-16 16:50:00,79.3,45.2,29.75,WSW,248,11.0,-999.0,30,0.00,,,0.00,Wunderground v.1.15,2013-03-16 20:50:00,
2013-03-16 16:55:00,79.4,45.3,29.75,SW,225,9.0,-999.0,30,0.00,,,0.00,Wunderground v.1.15,2013-03-16 20:55:00,
2013-03-16 17:00:00,79.6,46.3,29.75,WSW,248,8.0,-999.0,31,0.00,,,0.00,Wunderground v.1.15,2013-03-16 21:00:00,
2013-03-16 17:05:00,79.3,45.2,29.75,WSW,248,10.0,-999.0,30,0.00,,,0.00,Wunderground v.1.15,2013-03-16 21:05:00,
2013-03-16 17:10:00,78.9,44.8,29.75,SW,225,14.0,-999.0,30,0.00,,,0.00,Wunderground v.1.15,2013-03-16 21:10:00,
2013-03-16 17:15:00,78.9,44.8,29.75,SW,225,13.0,-999.0,30,0.00,,,0.00,Wunderground v.1.15,2013-03-16 21:15:00,
2013-03-16 17:20:00,78.7,43.8,29.75,SW,225,15.0,-999.0,29,0.00,,,0.00,Wunderground v.1.15,2013-03-16 21:20:00,
2013-03-16 17:25:00,78.7,44.7,29.75,SW,225,10.0,-999.0,30,0.00,,,0.00,Wunderground v.1.15,2013-03-16 21:25:00,
2013-03-16 17:30:00,78.7,43.8,29.76,WSW,248,12.0,-999.0,29,0.00,,,0.00,Wunderground v.1.15,2013-03-16 21:30:00,
2013-03-16 17:35:00,78.8,42.9,29.76,WSW,248,14.0,-999.0,28,0.00,,,0.00,Wunderground v.1.15,2013-03-16 21:35:00,
2013-03-16 17:40:00,78.8,43.8,29.76,WSW,248,11.0,-999.0,29,0.00,,,0.00,Wunderground v.1.15,2013-03-16 21:40:00,
2013-03-16 17:45:00,78.6,43.7,29.76,SW,225,12.0,-999.0,29,0.00,,,0.00,Wunderground v.1.15,2013-03-16 21:45:00,
2013-03-16 17:50:00,78.5,43.6,29.76,WSW,248,12.0,-999.0,29,0.00,,,0.00,Wunderground v.1.15,2013-03-16 21:50:00,
2013-03-16 17:55:00,78.4,43.5,29.76,WSW,248,13.0,-999.0,29,0.00,,,0.00,Wunderground v.1.15,2013-03-16 21:55:00,
2013-03-16 18:00:00,78.2,43.3,29.76,WSW,248,14.0,-999.0,29,0.00,,,0.00,Wunderground v.1.15,2013-03-16 22:00:00,
2013-03-16 18:05:00,78.0,43.2,29.76,WSW,248,12.0,-999.0,29,0.00,,,0.00,Wunderground v.1.15,2013-03-16 22:05:00,
2013-03-16 18:10:00,78.0,43.2,29.76,WSW,248,12.0,-999.0,29,0.00,,,0.00,Wunderground v.1.15,2013-03-16 22:10:00,
2013-03-16 18:15:00,77.9,44.0,29.76,SW,225,9.0,-999.0,30,0.00,,,0.00,Wunderground v.1.15,2013-03-16 22:15:00,
2013-03-16 18:20:00,77.8,43.0,29.76,SW,225,10.0,-999.0,29,0.00,,,0.00,Wunderground v.1.15,2013-03-16 22:20:00,
2013-03-16 18:25:00,77.6,42.8,29.76,SW,225,10.0,-999.0,29,0.00,,,0.00,Wunderground v.1.15,2013-03-16 22:25:00,
2013-03-16 18:30:00,77.5,42.7,29.76,WSW,248,12.0,-999.0,29,0.00,,,0.00,Wunderground v.1.15,2013-03-16 22:30:00,
2013-03-16 18:35:00,77.4,42.6,29.76,WSW,248,12.0,-999.0,29,0.00,,,0.00,Wunderground v.1.15,2013-03-16 22:35:00,
2013-03-16 18:40:00,77.2,42.5,29.76,WSW,248,10.0,-999.0,29,0.00,,,0.00,Wunderground v.1.15,2013-03-16 22:40:00,
2013-03-16 18:45:00,77.1,42.4,29.77,WSW,248,10.0,-999.0,29,0.00,,,0.00,Wunderground v.1.15,2013-03-16 22:45:00,
2013-03-16 18:50:00,76.8,42.1,29.77,WSW,248,7.0,-999.0,29,0.00,,,0.00,Wunderground v.1.15,2013-03-16 22:50:00,
2013-03-16 18:55:00,76.5,41.9,29.76,SW,225,8.0,-999.0,29,0.00,,,0.00,Wunderground v.1.15,2013-03-16 22:55:00,
2013-03-16 19:00:00,76.3,42.6,29.76,WSW,248,8.0,-999.0,30,0.00,,,0.00,Wunderground v.1.15,2013-03-16 23:00:00,
2013-03-16 19:05:00,76.1,42.4,29.76,SW,225,9.0,-999.0,30,0.00,,,0.00,Wunderground v.1.15,2013-03-16 23:05:00,
2013-03-16 19:10:00,76.0,42.3,29.76,WSW,248,8.0,-999.0,30,0.00,,,0.00,Wunderground v.1.15,2013-03-16 23:10:00,
2013-03-16 19:15:00,75.8,43.0,29.77,WSW,248,10.0,-999.0,31,0.00,,,0.00,Wunderground v.1.15,2013-03-16 23:15:00,
2013-03-16 19:20:00,75.7,42.9,29.77,WSW,248,9.0,-999.0,31,0.00,,,0.00,Wunderground v.1.15,2013-03-16 23:20:00,
2013-03-16 19:25:00,75.5,42.7,29.77,WSW,248,9.0,-999.0,31,0.00,,,0.00,Wunderground v.1.15,2013-03-16 23:25:00,
2013-03-16 19:30:00,75.3,43.4,29.77,WSW,248,10.0,-999.0,32,0.00,,,0.00,Wunderground v.1.15,2013-03-16 23:30:00,
2013-03-16 19:35:00,75.1,43.2,29.77,WSW,248,8.0,-999.0,32,0.00,,,0.00,Wunderground v.1.15,2013-03-16 23:35:00,
2013-03-16 19:40:00,74.8,43.0,29.77,SW,225,7.0,-999.0,32,0.00,,,0.00,Wunderground v.1.15,2013-03-16 23:40:00,
2013-03-16 19:45:00,74.4,43.4,29.78,SW,225,8.0,-999.0,33,0.00,,,0.00,Wunderground v.1.15,2013-03-16 23:45:00,
2013-03-16 19:50:00,74.3,44.1,29.78,SW,225,9.0,-999.0,34,0.00,,,0.00,Wunderground v.1.15,2013-03-16 23:50:00,
2013-03-16 19:55:00,74.1,43.9,29.78,SW,225,8.0,-999.0,34,0.00,,,0.00,Wunderground v.1.15,2013-03-16 23:55:00,
2013-03-16 20:00:00,74.0,43.8,29.78,WSW,248,8.0,-999.0,34,0.00,,,0.00,Wunderground v.1.15,2013-03-17 00:00:00,
2013-03-16 20:05:00,73.8,43.7,29.78,WSW,248,8.0,-999.0,34,0.00,,,0.00,Wunderground v.1.15,2013-03-17 00:05:00,
2013-03-16 20:10:00,73.8,44.4,29.79,WSW,248,8.0,-999.0,35,0.00,,,0.00,Wunderground v.1.15,2013-03-17 00:10:00,
2013-03-16 20:15:00,73.6,44.2,29.79,WSW,248,8.0,-999.0,35,0.00,,,0.00,Wunderground v.1.15,2013-03-17 00:15:00,
2013-03-16 20:20:00,73.3,44.0,29.79,SW,225,6.0,-999.0,35,0.00,,,0.00,Wunderground v.1.15,2013-03-17 00:20:00,
2013-03-16 20:25:00,72.9,44.4,29.80,WSW,248,5.0,-999.0,36,0.00,,,0.00,Wunderground v.1.15,2013-03-17 00:25:00,
2013-03-16 20:30:00,72.8,44.3,29.80,WSW,248,6.0,-999.0,36,0.00,,,0.00,Wunderground v.1.15,2013-03-17 00:30:00,
2013-03-16 20:35:00,72.9,43.6,29.81,WSW,248,8.0,-999.0,35,0.00,,,0.00,Wunderground v.1.15,2013-03-17 00:35:00,
2013-03-16 20:40:00,72.8,43.5,29.80,WSW,248,8.0,-999.0,35,0.00,,,0.00,Wunderground v.1.15,2013-03-17 00:40:00,
2013-03-16 20:45:00,72.6,44.1,29.81,SW,225,7.0,-999.0,36,0.00,,,0.00,Wunderground v.1.15,2013-03-17 00:45:00,
2013-03-16 20:50:00,72.2,45.9,29.81,SW,225,6.0,-999.0,39,0.00,,,0.00,Wunderground v.1.15,2013-03-17 00:50:00,
2013-03-16 20:55:00,71.2,46.3,29.81,SW,225,7.0,-999.0,41,0.00,,,0.00,Wunderground v.1.15,2013-03-17 00:55:00,
2013-03-16 21:00:00,70.8,45.9,29.81,SW,225,7.0,-999.0,41,0.00,,,0.00,Wunderground v.1.15,2013-03-17 01:00:00,
2013-03-16 21:05:00,70.6,46.4,29.81,SW,225,7.0,-999.0,42,0.00,,,0.00,Wunderground v.1.15,2013-03-17 01:05:00,
2013-03-16 21:10:00,70.1,46.6,29.82,SW,225,5.0,-999.0,43,0.00,,,0.00,Wunderground v.1.15,2013-03-17 01:10:00,
2013-03-16 21:15:00,69.6,47.3,29.82,SW,225,5.0,-999.0,45,0.00,,,0.00,Wunderground v.1.15,2013-03-17 01:15:00,
2013-03-16 21:20:00,68.9,47.8,29.83,SSW,203,5.0,-999.0,47,0.00,,,0.00,Wunderground v.1.15,2013-03-17 01:20:00,
2013-03-16 21:25:00,68.5,48.0,29.83,SSW,203,5.0,-999.0,48,0.00,,,0.00,Wunderground v.1.15,2013-03-17 01:25:00,
2013-03-16 21:30:00,68.3,47.8,29.83,SW,225,4.0,-999.0,48,0.00,,,0.00,Wunderground v.1.15,2013-03-17 01:30:00,
2013-03-16 21:35:00,68.1,47.7,29.83,SW,225,4.0,-999.0,48,0.00,,,0.00,Wunderground v.1.15,2013-03-17 01:35:00,
2013-03-16 21:40:00,68.1,48.2,29.84,SW,225,5.0,-999.0,49,0.00,,,0.00,Wunderground v.1.15,2013-03-17 01:40:00,
2013-03-16 21:45:00,67.9,48.0,29.84,SW,225,5.0,-999.0,49,0.00,,,0.00,Wunderground v.1.15,2013-03-17 01:45:00,
2013-03-16 21:50:00,67.6,48.3,29.84,SW,225,4.0,-999.0,50,0.00,,,0.00,Wunderground v.1.15,2013-03-17 01:50:00,
2013-03-16 21:55:00,67.3,48.0,29.84,SW,225,4.0,-999.0,50,0.00,,,0.00,Wunderground v.1.15,2013-03-17 01:55:00,
2013-03-16 22:00:00,67.1,48.4,29.84,SW,225,5.0,-999.0,51,0.00,,,0.00,Wunderground v.1.15,2013-03-17 02:00:00,
2013-03-16 22:05:00,66.9,48.2,29.84,SW,225,5.0,-999.0,51,0.00,,,0.00,Wunderground v.1.15,2013-03-17 02:05:00,
2013-03-16 22:10:00,66.8,48.1,29.85,SW,225,4.0,-999.0,51,0.00,,,0.00,Wunderground v.1.15,2013-03-17 02:10:00,
2013-03-16 22:15:00,66.6,48.4,29.85,SW,225,4.0,-999.0,52,0.00,,,0.00,Wunderground v.1.15,2013-03-17 02:15:00,
2013-03-16 22:20:00,66.4,48.2,29.85,SW,225,4.0,-999.0,52,0.00,,,0.00,Wunderground v.1.15,2013-03-17 02:20:00,
2013-03-16 22:25:00,66.3,48.1,29.85,SW,225,6.0,-999.0,52,0.00,,,0.00,Wunderground v.1.15,2013-03-17 02:25:00,
2013-03-16 22:30:00,66.1,48.0,29.85,SW,225,5.0,-999.0,52,0.00,,,0.00,Wunderground v.1.15,2013-03-17 02:30:00,
2013-03-16 22:35:00,65.9,47.8,29.85,SW,225,5.0,-999.0,52,0.00,,,0.00,Wunderground v.1.15,2013-03-17 02:35:00,
2013-03-16 22:40:00,65.8,48.2,29.85,SW,225,6.0,-999.0,53,0.00,,,0.00,Wunderground v.1.15,2013-03-17 02:40:00,
2013-03-16 22:45:00,65.5,47.9,29.86,SW,225,5.0,-999.0,53,0.00,,,0.00,Wunderground v.1.15,2013-03-17 02:45:00,
2013-03-16 22:50:00,65.3,47.7,29.86,SW,225,6.0,-999.0,53,0.00,,,0.00,Wunderground v.1.15,2013-03-17 02:50:00,
2013-03-16 22:55:00,65.2,48.1,29.86,SW,225,6.0,-999.0,54,0.00,,,0.00,Wunderground v.1.15,2013-03-17 02:55:00,
2013-03-16 23:00:00,65.1,48.0,29.85,SW,225,7.0,-999.0,54,0.00,,,0.00,Wunderground v.1.15,2013-03-17 03:00:00,
2013-03-16 23:05:00,65.0,47.4,29.86,SW,225,6.0,-999.0,53,0.00,,,0.00,Wunderground v.1.15,2013-03-17 03:05:00,
2013-03-16 23:10:00,65.1,47.5,29.86,SW,225,5.0,-999.0,53,0.00,,,0.00,Wunderground v.1.15,2013-03-17 03:10:00,
2013-03-16 23:15:00,65.0,47.4,29.86,SW,225,5.0,-999.0,53,0.00,,,0.00,Wunderground v.1.15,2013-03-17 03:15:00,
2013-03-16 23:20:00,64.7,47.7,29.86,SW,225,5.0,-999.0,54,0.00,,,0.00,Wunderground v.1.15,2013-03-17 03:20:00,
2013-03-16 23:25:00,64.6,47.6,29.86,SW,225,5.0,-999.0,54,0.00,,,0.00,Wunderground v.1.15,2013-03-17 03:25:00,
2013-03-16 23:30:00,64.6,47.6,29.86,SW,225,5.0,-999.0,54,0.00,,,0.00,Wunderground v.1.15,2013-03-17 03:30:00,
2013-03-16 23:35:00,64.6,47.1,29.86,SW,225,5.0,-999.0,53,0.00,,,0.00,Wunderground v.1.15,2013-03-17 03:35:00,
2013-03-16 23:40:00,64.5,47.0,29.86,SW,225,5.0,-999.0,53,0.00,,,0.00,Wunderground v.1.15,2013-03-17 03:40:00,
2013-03-16 23:45:00,64.4,47.4,29.87,SW,225,5.0,-999.0,54,0.00,,,0.00,Wunderground v.1.15,2013-03-17 03:45:00,
2013-03-16 23:50:00,64.3,47.3,29.87,SW,225,5.0,-999.0,54,0.00,,,0.00,Wunderground v.1.15,2013-03-17 03:50:00,
2013-03-16 23:55:00,64.1,47.1,29.87,SW,225,5.0,-999.0,54,0.00,,,0.00,Wunderground v.1.15,2013-03-17 03:55:00,